createdAt,value
2023-02-16T00:00:53.872Z,98137.47
2023-02-16T00:02:17.785Z,98136.66
2023-02-16T00:03:39.250Z,98138.19
2023-02-16T00:05:00.263Z,98135.53
2023-02-16T00:06:21.336Z,98133.72
2023-02-16T00:07:42.216Z,98133.72
2023-02-16T00:09:03.741Z,98130.75
2023-02-16T00:10:30.294Z,98127.06
2023-02-16T00:11:54.017Z,98130.75
2023-02-16T00:13:21.650Z,98128.94
2023-02-16T00:14:45.112Z,98125.75
2023-02-16T00:16:13.766Z,98127.09
2023-02-16T00:17:39.870Z,98124.41
2023-02-16T00:19:01.240Z,98127.84
2023-02-16T00:20:22.538Z,98121.75
2023-02-16T00:21:43.660Z,98123.31
2023-02-16T00:23:04.820Z,98129.47
2023-02-16T00:24:30.840Z,98124.41
2023-02-16T00:25:52.103Z,98122.78
2023-02-16T00:27:16.452Z,98115.31
2023-02-16T00:28:37.783Z,98113.19
2023-02-16T00:30:01.626Z,98112.94
2023-02-16T00:31:24.859Z,98116.09
2023-02-16T00:32:48.931Z,98116.66
2023-02-16T00:34:28.359Z,98108.19
2023-02-16T00:35:49.424Z,98119.31
2023-02-16T00:37:11.065Z,98112.69
2023-02-16T00:38:34.209Z,98104.97
2023-02-16T00:39:55.082Z,98112.44
2023-02-16T00:41:18.115Z,98112.41
2023-02-16T00:42:39.463Z,98116.91
2023-02-16T00:44:02.953Z,98113.44
2023-02-16T00:45:24.489Z,98113.69
2023-02-16T00:46:47.954Z,98107.81
2023-02-16T00:48:11.680Z,98103.28
2023-02-16T00:49:35.533Z,98113.94
2023-02-16T00:50:59.338Z,98108.88
2023-02-16T00:52:33.730Z,98118.47
2023-02-16T00:53:57.333Z,98112.56
2023-02-16T00:55:21.097Z,98116.59
2023-02-16T00:56:43.114Z,98114.44
2023-02-16T00:58:08.361Z,98110.72
2023-02-16T00:59:32.392Z,98111.78
2023-02-16T01:00:55.997Z,98109.91
2023-02-16T01:02:17.063Z,98115.56
2023-02-16T01:03:40.767Z,98114.00
2023-02-16T01:05:05.412Z,98115.00
2023-02-16T01:06:29.696Z,98117.16
2023-02-16T01:07:50.520Z,98112.41
2023-02-16T01:09:14.180Z,98111.25
2023-02-16T01:10:37.608Z,98104.34
2023-02-16T01:11:59.887Z,98109.13
2023-02-16T01:13:24.811Z,98108.88
2023-02-16T01:14:49.308Z,98103.56
2023-02-16T01:16:14.564Z,98108.59
2023-02-16T01:17:35.911Z,98102.25
2023-02-16T01:18:59.356Z,98106.53
2023-02-16T01:20:25.379Z,98108.88
2023-02-16T01:21:46.710Z,98103.59
2023-02-16T01:23:07.618Z,98100.91
2023-02-16T01:24:28.924Z,98100.38
2023-02-16T01:25:50.301Z,98096.66
2023-02-16T01:27:12.933Z,98105.19
2023-02-16T01:28:35.103Z,98096.91
2023-02-16T01:29:58.943Z,98098.22
2023-02-16T01:31:20.516Z,98097.41
2023-02-16T01:32:41.860Z,98102.72
2023-02-16T01:34:08.816Z,98096.34
2023-02-16T01:35:33.288Z,98096.34
2023-02-16T01:36:57.061Z,98095.81
2023-02-16T01:38:19.667Z,98097.41
2023-02-16T01:39:44.266Z,98087.56
2023-02-16T01:41:11.775Z,98099.03
2023-02-16T01:42:37.052Z,98095.56
2023-02-16T01:44:03.146Z,98093.69
2023-02-16T01:45:30.304Z,98094.72
2023-02-16T01:47:01.200Z,98091.28
2023-02-16T01:48:27.146Z,98091.28
2023-02-16T01:49:50.813Z,98091.53
2023-02-16T01:51:19.610Z,98095.00
2023-02-16T01:52:47.812Z,98096.59
2023-02-16T01:54:16.768Z,98096.59
2023-02-16T01:55:41.608Z,98091.53
2023-02-16T01:57:10.910Z,98092.34
2023-02-16T01:58:40.683Z,98074.75
2023-02-16T02:00:17.062Z,98078.75
2023-02-16T02:01:52.391Z,98082.25
2023-02-16T02:03:18.496Z,98083.28
2023-02-16T02:04:44.507Z,98075.53
2023-02-16T02:06:11.230Z,98077.16
2023-02-16T02:07:45.304Z,98072.09
2023-02-16T02:09:10.921Z,98065.66
2023-02-16T02:10:40.461Z,98067.84
2023-02-16T02:12:09.309Z,98064.34
2023-02-16T02:13:36.291Z,98060.63
2023-02-16T02:14:57.163Z,98061.13
2023-02-16T02:16:19.720Z,98066.28
2023-02-16T02:17:43.069Z,98063.56
2023-02-16T02:19:04.468Z,98067.56
2023-02-16T02:20:43.333Z,98064.66
2023-02-16T02:22:33.014Z,98068.09
2023-02-16T02:24:09.785Z,98064.16
2023-02-16T02:26:06.576Z,98066.28
2023-02-16T02:27:32.918Z,98056.09
2023-02-16T02:29:07.867Z,98057.47
2023-02-16T02:30:42.038Z,98062.78
2023-02-16T02:32:16.889Z,98054.25
2023-02-16T02:33:52.800Z,98054.78
2023-02-16T02:35:25.291Z,98054.78
2023-02-16T02:36:51.369Z,98051.09
2023-02-16T02:38:21.904Z,98047.88
2023-02-16T02:39:52.372Z,98056.66
2023-02-16T02:41:23.899Z,98058.28
2023-02-16T02:42:57.655Z,98058.00
2023-02-16T02:44:22.445Z,98048.91
2023-02-16T02:45:47.766Z,98051.56
2023-02-16T02:47:09.304Z,98051.03
2023-02-16T02:48:30.642Z,98054.00
2023-02-16T02:49:53.764Z,98046.53
2023-02-16T02:51:18.584Z,98052.41
2023-02-16T02:52:39.914Z,98048.91
2023-02-16T02:54:05.987Z,98054.00
2023-02-16T02:55:29.151Z,98050.53
2023-02-16T02:56:56.309Z,98051.56
2023-02-16T02:58:25.725Z,98052.41
2023-02-16T02:59:56.200Z,98046.53
2023-02-16T03:01:19.646Z,98051.03
2023-02-16T03:02:41.928Z,98044.13
2023-02-16T03:04:08.305Z,98044.91
2023-02-16T03:05:33.791Z,98034.81
2023-02-16T03:07:00.039Z,98035.56
2023-02-16T03:08:24.008Z,98040.66
2023-02-16T03:09:45.420Z,98035.56
2023-02-16T03:11:12.536Z,98034.50
2023-02-16T03:12:34.548Z,98039.84
2023-02-16T03:14:05.424Z,98042.00
2023-02-16T03:15:31.377Z,98039.34
2023-02-16T03:16:57.880Z,98037.16
2023-02-16T03:18:19.179Z,98029.19
2023-02-16T03:19:40.661Z,98034.56
2023-02-16T03:21:03.912Z,98031.34
2023-02-16T03:22:25.569Z,98034.00
2023-02-16T03:23:51.173Z,98034.78
2023-02-16T03:25:12.350Z,98036.38
2023-02-16T03:26:33.825Z,98032.16
2023-02-16T03:27:56.672Z,98038.53
2023-02-16T03:29:23.340Z,98032.91
2023-02-16T03:30:48.987Z,98044.13
2023-02-16T03:32:12.819Z,98038.47
2023-02-16T03:33:36.881Z,98040.59
2023-02-16T03:34:58.340Z,98040.13
2023-02-16T03:36:19.203Z,98039.34
2023-02-16T03:37:41.321Z,98041.75
2023-02-16T03:39:04.060Z,98048.38
2023-02-16T03:40:30.270Z,98047.81
2023-02-16T03:41:56.048Z,98044.34
2023-02-16T03:43:17.138Z,98048.88
2023-02-16T03:44:40.981Z,98056.09
2023-02-16T03:46:04.472Z,98059.53
2023-02-16T03:47:27.883Z,98057.44
2023-02-16T03:48:48.688Z,98060.63
2023-02-16T03:50:12.022Z,98061.69
2023-02-16T03:51:36.274Z,98067.53
2023-02-16T03:52:58.107Z,98062.19
2023-02-16T03:54:19.168Z,98060.03
2023-02-16T03:55:42.441Z,98058.44
2023-02-16T03:57:06.588Z,98056.09
2023-02-16T03:58:27.977Z,98063.50
2023-02-16T03:59:54.345Z,98062.97
2023-02-16T04:01:17.810Z,98059.78
2023-02-16T04:02:41.570Z,98058.19
2023-02-16T04:04:02.492Z,98054.75
2023-02-16T04:05:23.890Z,98055.25
2023-02-16T04:06:44.709Z,98052.09
2023-02-16T04:08:06.923Z,98058.75
2023-02-16T04:09:28.110Z,98053.34
2023-02-16T04:10:51.316Z,98047.25
2023-02-16T04:12:13.343Z,98054.16
2023-02-16T04:13:34.446Z,98052.25
2023-02-16T04:14:58.474Z,98050.38
2023-02-16T04:16:19.796Z,98048.78
2023-02-16T04:17:44.370Z,98052.81
2023-02-16T04:19:05.767Z,98047.16
2023-02-16T04:20:32.091Z,98043.72
2023-02-16T04:21:53.514Z,98044.22
2023-02-16T04:23:14.726Z,98045.06
2023-02-16T04:24:36.112Z,98039.97
2023-02-16T04:25:57.398Z,98043.72
2023-02-16T04:27:18.947Z,98036.78
2023-02-16T04:28:42.536Z,98035.72
2023-02-16T04:30:08.672Z,98036.28
2023-02-16T04:31:32.350Z,98038.88
2023-02-16T04:32:53.647Z,98027.69
2023-02-16T04:34:17.277Z,98029.56
2023-02-16T04:35:41.543Z,98025.03
2023-02-16T04:37:02.417Z,98027.78
2023-02-16T04:38:23.454Z,98028.84
2023-02-16T04:39:44.315Z,98029.72
2023-02-16T04:41:07.610Z,98027.91
2023-02-16T04:42:28.427Z,98026.81
2023-02-16T04:43:53.822Z,98029.78
2023-02-16T04:45:20.235Z,98034.88
2023-02-16T04:46:41.423Z,98033.84
2023-02-16T04:48:02.442Z,98032.53
2023-02-16T04:49:23.527Z,98039.19
2023-02-16T04:50:44.283Z,98039.56
2023-02-16T04:52:08.212Z,98026.50
2023-02-16T04:53:29.661Z,98028.91
2023-02-16T04:54:50.891Z,98029.44
2023-02-16T04:56:12.644Z,98035.56
2023-02-16T04:57:36.123Z,98022.00
2023-02-16T04:58:57.450Z,98033.22
2023-02-16T05:00:23.968Z,98049.75
2023-02-16T05:01:47.450Z,98045.22
2023-02-16T05:03:08.800Z,98035.34
2023-02-16T05:04:30.150Z,98032.44
2023-02-16T05:05:53.854Z,98031.66
2023-02-16T05:07:17.980Z,98038.56
2023-02-16T05:08:41.102Z,98030.84
2023-02-16T05:10:02.111Z,98036.97
2023-02-16T05:11:23.317Z,98037.50
2023-02-16T05:12:44.580Z,98037.50
2023-02-16T05:14:05.369Z,98033.06
2023-02-16T05:15:29.261Z,98029.81
2023-02-16T05:16:51.031Z,98030.06
2023-02-16T05:18:12.248Z,98030.31
2023-02-16T05:19:33.515Z,98035.66
2023-02-16T05:20:54.542Z,98028.47
2023-02-16T05:22:15.498Z,98036.75
2023-02-16T05:23:36.758Z,98035.41
2023-02-16T05:24:57.840Z,98032.72
2023-02-16T05:26:19.282Z,98032.97
2023-02-16T05:27:43.359Z,98033.50
2023-02-16T05:29:07.938Z,98026.56
2023-02-16T05:30:31.929Z,98025.78
2023-02-16T05:31:55.653Z,98030.03
2023-02-16T05:33:19.594Z,98040.13
2023-02-16T05:34:40.901Z,98044.41
2023-02-16T05:36:02.025Z,98039.34
2023-02-16T05:37:22.891Z,98052.72
2023-02-16T05:38:46.469Z,98047.06
2023-02-16T05:40:09.414Z,98035.88
2023-02-16T05:41:33.618Z,98037.19
2023-02-16T05:42:56.962Z,98043.31
2023-02-16T05:44:20.084Z,98044.13
2023-02-16T05:45:43.424Z,98043.63
2023-02-16T05:47:04.693Z,98044.13
2023-02-16T05:48:26.200Z,98045.97
2023-02-16T05:49:47.369Z,98051.31
2023-02-16T05:51:08.170Z,98037.47
2023-02-16T05:52:29.431Z,98037.19
2023-02-16T05:53:53.223Z,98042.78
2023-02-16T05:55:14.490Z,98040.34
2023-02-16T05:56:37.553Z,98045.94
2023-02-16T05:58:01.374Z,98046.47
2023-02-16T05:59:22.897Z,98056.84
2023-02-16T06:00:47.022Z,98072.06
2023-02-16T06:02:08.153Z,98076.06
2023-02-16T06:03:31.866Z,98085.88
2023-02-16T06:04:55.014Z,98087.19
2023-02-16T06:06:16.313Z,98092.28
2023-02-16T06:07:40.377Z,98098.66
2023-02-16T06:09:01.137Z,98105.09
2023-02-16T06:10:24.406Z,98105.84
2023-02-16T06:11:45.928Z,98099.72
2023-02-16T06:13:07.025Z,98100.22
2023-02-16T06:14:30.864Z,98102.88
2023-02-16T06:15:55.262Z,98105.59
2023-02-16T06:17:16.366Z,98104.50
2023-02-16T06:18:40.413Z,98107.97
2023-02-16T06:20:01.599Z,98109.00
2023-02-16T06:21:26.408Z,98108.44
2023-02-16T06:22:49.950Z,98098.06
2023-02-16T06:24:12.608Z,98098.06
2023-02-16T06:25:36.789Z,98096.22
2023-02-16T06:27:00.289Z,98095.13
2023-02-16T06:28:21.096Z,98089.31
2023-02-16T06:29:42.251Z,98088.72
2023-02-16T06:31:06.192Z,98095.69
2023-02-16T06:32:30.358Z,98093.28
2023-02-16T06:33:51.827Z,98090.88
2023-02-16T06:35:13.197Z,98091.38
2023-02-16T06:36:36.642Z,98091.66
2023-02-16T06:38:00.759Z,98089.78
2023-02-16T06:39:24.771Z,98099.09
2023-02-16T06:40:51.102Z,98091.09
2023-02-16T06:42:12.192Z,98090.03
2023-02-16T06:43:33.118Z,98086.59
2023-02-16T06:44:54.422Z,98091.66
2023-02-16T06:46:17.885Z,98095.97
2023-02-16T06:47:39.205Z,98092.19
2023-02-16T06:49:01.277Z,98099.13
2023-02-16T06:50:22.550Z,98099.34
2023-02-16T06:51:43.266Z,98104.50
2023-02-16T06:53:04.565Z,98098.63
2023-02-16T06:54:25.465Z,98099.72
2023-02-16T06:55:46.781Z,98100.22
2023-02-16T06:57:07.985Z,98106.63
2023-02-16T06:58:29.303Z,98110.31
2023-02-16T06:59:53.590Z,98114.06
2023-02-16T07:01:19.915Z,98113.53
2023-02-16T07:02:41.463Z,98112.75
2023-02-16T07:04:02.629Z,98114.59
2023-02-16T07:05:24.610Z,98115.41
2023-02-16T07:06:45.606Z,98104.19
2023-02-16T07:08:06.479Z,98110.38
2023-02-16T07:09:27.787Z,98112.75
2023-02-16T07:10:52.738Z,98115.41
2023-02-16T07:12:14.100Z,98106.84
2023-02-16T07:13:34.936Z,98106.09
2023-02-16T07:14:58.794Z,98108.44
2023-02-16T07:16:22.338Z,98103.97
2023-02-16T07:17:43.343Z,98105.78
2023-02-16T07:19:04.532Z,98111.13
2023-02-16T07:20:25.336Z,98115.72
2023-02-16T07:21:46.306Z,98116.75
2023-02-16T07:23:07.288Z,98113.22
2023-02-16T07:24:28.247Z,98110.31
2023-02-16T07:25:49.544Z,98110.63
2023-02-16T07:27:13.593Z,98111.97
2023-02-16T07:28:37.989Z,98116.16
2023-02-16T07:29:59.477Z,98115.09
2023-02-16T07:31:23.076Z,98113.78
2023-02-16T07:32:44.399Z,98129.50
2023-02-16T07:34:05.790Z,98122.84
2023-02-16T07:35:29.929Z,98120.41
2023-02-16T07:36:50.845Z,98126.81
2023-02-16T07:38:14.626Z,98123.28
2023-02-16T07:39:35.883Z,98127.06
2023-02-16T07:40:57.532Z,98115.63
2023-02-16T07:42:21.232Z,98107.06
2023-02-16T07:43:42.277Z,98106.53
2023-02-16T07:45:03.252Z,98118.81
2023-02-16T07:46:27.224Z,98123.59
2023-02-16T07:47:48.573Z,98125.19
2023-02-16T07:49:09.783Z,98120.38
2023-02-16T07:50:30.661Z,98122.84
2023-02-16T07:51:51.947Z,98119.88
2023-02-16T07:53:16.082Z,98124.94
2023-02-16T07:54:36.882Z,98119.88
2023-02-16T07:55:57.881Z,98121.75
2023-02-16T07:57:22.289Z,98125.72
2023-02-16T07:58:43.272Z,98122.53
2023-02-16T08:00:06.499Z,98131.31
2023-02-16T08:01:35.455Z,98127.38
2023-02-16T08:02:59.152Z,98130.31
2023-02-16T08:04:20.909Z,98132.16
2023-02-16T08:05:42.228Z,98120.41
2023-02-16T08:07:05.885Z,98124.16
2023-02-16T08:08:26.760Z,98121.28
2023-02-16T08:09:50.368Z,98120.72
2023-02-16T08:11:13.303Z,98120.97
2023-02-16T08:12:34.681Z,98114.88
2023-02-16T08:13:59.811Z,98119.97
2023-02-16T08:15:21.186Z,98118.38
2023-02-16T08:16:48.995Z,98116.19
2023-02-16T08:18:14.315Z,98117.25
2023-02-16T08:19:35.232Z,98121.03
2023-02-16T08:21:04.354Z,98119.94
2023-02-16T08:22:25.878Z,98126.81
2023-02-16T08:23:52.562Z,98125.75
2023-02-16T08:25:13.894Z,98124.94
2023-02-16T08:26:37.574Z,98119.44
2023-02-16T08:28:04.199Z,98120.00
2023-02-16T08:29:26.289Z,98120.84
2023-02-16T08:30:50.526Z,98125.00
2023-02-16T08:32:14.764Z,98127.63
2023-02-16T08:33:35.996Z,98126.34
2023-02-16T08:34:57.466Z,98116.34
2023-02-16T08:36:19.194Z,98125.94
2023-02-16T08:37:40.553Z,98126.81
2023-02-16T08:39:07.270Z,98126.75
2023-02-16T08:40:31.347Z,98120.91
2023-02-16T08:41:57.377Z,98123.97
2023-02-16T08:43:19.031Z,98124.88
2023-02-16T08:44:42.952Z,98130.00
2023-02-16T08:46:07.126Z,98117.03
2023-02-16T08:47:31.223Z,98119.94
2023-02-16T08:48:55.915Z,98129.50
2023-02-16T08:50:17.158Z,98122.31
2023-02-16T08:51:45.341Z,98136.63
2023-02-16T08:53:06.466Z,98130.34
2023-02-16T08:54:28.373Z,98133.13
2023-02-16T08:55:54.590Z,98137.00
2023-02-16T08:57:17.979Z,98131.88
2023-02-16T08:58:45.018Z,98130.13
2023-02-16T09:00:07.920Z,98139.03
2023-02-16T09:01:29.100Z,98136.91
2023-02-16T09:02:52.791Z,98143.94
2023-02-16T09:04:15.289Z,98142.66
2023-02-16T09:05:36.610Z,98142.69
2023-02-16T09:07:00.392Z,98149.41
2023-02-16T09:08:21.552Z,98140.94
2023-02-16T09:09:43.113Z,98136.19
2023-02-16T09:11:05.786Z,98141.53
2023-02-16T09:12:29.338Z,98146.38
2023-02-16T09:13:53.282Z,98141.84
2023-02-16T09:15:14.364Z,98140.59
2023-02-16T09:16:35.881Z,98138.75
2023-02-16T09:17:59.521Z,98145.38
2023-02-16T09:19:21.348Z,98140.34
2023-02-16T09:20:46.446Z,98140.59
2023-02-16T09:22:07.832Z,98140.09
2023-02-16T09:23:29.193Z,98148.91
2023-02-16T09:24:49.979Z,98145.75
2023-02-16T09:26:13.763Z,98142.25
2023-02-16T09:27:35.238Z,98146.28
2023-02-16T09:29:00.121Z,98146.03
2023-02-16T09:30:23.655Z,98148.94
2023-02-16T09:31:47.409Z,98146.59
2023-02-16T09:33:10.735Z,98150.81
2023-02-16T09:34:31.526Z,98150.25
2023-02-16T09:35:52.932Z,98151.56
2023-02-16T09:37:16.648Z,98153.97
2023-02-16T09:38:38.963Z,98160.41
2023-02-16T09:40:00.114Z,98154.03
2023-02-16T09:41:32.634Z,98160.41
2023-02-16T09:43:06.768Z,98155.88
2023-02-16T09:44:41.779Z,98153.50
2023-02-16T09:46:04.189Z,98148.41
2023-02-16T09:47:30.705Z,98151.03
2023-02-16T09:48:54.864Z,98151.88
2023-02-16T09:50:38.301Z,98151.06
2023-02-16T09:52:10.372Z,98156.09
2023-02-16T09:53:36.866Z,98149.44
2023-02-16T09:55:01.460Z,98153.44
2023-02-16T09:56:29.488Z,98151.31
2023-02-16T09:58:04.846Z,98144.66
2023-02-16T09:59:41.091Z,98148.66
2023-02-16T10:01:13.385Z,98152.63
2023-02-16T10:02:48.903Z,98147.56
2023-02-16T10:04:36.586Z,98144.13
2023-02-16T10:06:05.047Z,98143.81
2023-02-16T10:07:36.562Z,98141.69
2023-02-16T10:09:02.044Z,98151.81
2023-02-16T10:10:29.490Z,98148.09
2023-02-16T10:11:55.256Z,98144.09
2023-02-16T10:13:25.547Z,98144.88
2023-02-16T10:14:51.422Z,98142.22
2023-02-16T10:16:22.997Z,98148.34
2023-02-16T10:17:52.743Z,98143.81
2023-02-16T10:19:22.353Z,98136.59
2023-02-16T10:20:52.270Z,98156.34
2023-02-16T10:22:32.538Z,98147.81
2023-02-16T10:24:00.587Z,98152.03
2023-02-16T10:25:25.820Z,98142.47
2023-02-16T10:26:51.605Z,98145.13
2023-02-16T10:28:17.644Z,98146.47
2023-02-16T10:29:38.842Z,98153.91
2023-02-16T10:31:02.349Z,98151.03
2023-02-16T10:32:27.029Z,98149.13
2023-02-16T10:34:04.679Z,98146.22
2023-02-16T10:35:32.849Z,98145.66
2023-02-16T10:37:16.350Z,98148.31
2023-02-16T10:38:44.666Z,98145.66
2023-02-16T10:40:22.890Z,98143.78
2023-02-16T10:41:55.574Z,98140.34
2023-02-16T10:43:21.333Z,98146.47
2023-02-16T10:44:47.790Z,98141.38
2023-02-16T10:46:10.817Z,98139.50
2023-02-16T10:47:35.069Z,98143.25
2023-02-16T10:48:59.240Z,98143.25
2023-02-16T10:50:26.648Z,98143.78
2023-02-16T10:51:52.010Z,98137.38
2023-02-16T10:53:24.464Z,98135.00
2023-02-16T10:54:47.729Z,98135.81
2023-02-16T10:56:26.428Z,98135.00
2023-02-16T10:57:54.003Z,98129.41
2023-02-16T10:59:19.709Z,98124.84
2023-02-16T11:00:52.024Z,98119.25
2023-02-16T11:02:19.049Z,98115.50
2023-02-16T11:03:45.881Z,98114.19
2023-02-16T11:05:32.272Z,98114.19
2023-02-16T11:07:02.697Z,98112.31
2023-02-16T11:08:46.710Z,98112.06
2023-02-16T11:10:20.403Z,98106.47
2023-02-16T11:11:41.729Z,98102.75
2023-02-16T11:13:06.074Z,98107.03
2023-02-16T11:14:29.698Z,98103.03
2023-02-16T11:15:53.199Z,98100.91
2023-02-16T11:17:16.322Z,98102.75
2023-02-16T11:18:40.804Z,98097.97
2023-02-16T11:20:07.007Z,98091.59
2023-02-16T11:21:44.698Z,98088.91
2023-02-16T11:23:22.758Z,98096.13
2023-02-16T11:24:48.891Z,98096.38
2023-02-16T11:26:23.751Z,98097.97
2023-02-16T11:27:54.109Z,98098.47
2023-02-16T11:29:20.236Z,98103.81
2023-02-16T11:30:42.374Z,98098.97
2023-02-16T11:32:08.697Z,98103.03
2023-02-16T11:33:33.099Z,98100.31
2023-02-16T11:34:54.504Z,98094.72
2023-02-16T11:36:21.124Z,98097.94
2023-02-16T11:37:42.505Z,98101.94
2023-02-16T11:39:08.862Z,98097.38
2023-02-16T11:40:34.652Z,98092.06
2023-02-16T11:41:58.478Z,98097.38
2023-02-16T11:43:20.275Z,98094.41
2023-02-16T11:44:44.593Z,98088.59
2023-02-16T11:46:13.485Z,98075.28
2023-02-16T11:47:37.187Z,98083.03
2023-02-16T11:49:22.246Z,98085.19
2023-02-16T11:50:57.284Z,98078.03
2023-02-16T11:52:27.771Z,98073.53
2023-02-16T11:54:00.194Z,98077.78
2023-02-16T11:55:25.813Z,98070.03
2023-02-16T11:57:02.229Z,98070.56
2023-02-16T11:58:26.630Z,98066.63
2023-02-16T11:59:47.616Z,98062.38
2023-02-16T12:01:17.490Z,98060.78
2023-02-16T12:03:09.735Z,98057.06
2023-02-16T12:04:54.523Z,98056.56
2023-02-16T12:06:30.044Z,98055.47
2023-02-16T12:08:12.132Z,98052.00
2023-02-16T12:09:45.103Z,98054.44
2023-02-16T12:11:29.791Z,98049.09
2023-02-16T12:13:03.674Z,98056.00
2023-02-16T12:14:30.306Z,98046.97
2023-02-16T12:15:59.472Z,98052.31
2023-02-16T12:17:34.787Z,98047.75
2023-02-16T12:19:20.116Z,98046.97
2023-02-16T12:20:50.854Z,98046.97
2023-02-16T12:22:25.914Z,98048.56
2023-02-16T12:23:59.538Z,98039.50
2023-02-16T12:25:30.440Z,98037.88
2023-02-16T12:26:55.898Z,98042.72
2023-02-16T12:28:27.908Z,98032.59
2023-02-16T12:29:59.582Z,98040.06
2023-02-16T12:31:29.943Z,98040.59
2023-02-16T12:33:05.085Z,98037.63
2023-02-16T12:34:37.500Z,98035.50
2023-02-16T12:36:17.461Z,98035.50
2023-02-16T12:37:45.891Z,98028.59
2023-02-16T12:39:17.388Z,98027.53
2023-02-16T12:40:49.337Z,98023.25
2023-02-16T12:42:32.912Z,98027.56
2023-02-16T12:44:02.328Z,98026.47
2023-02-16T12:45:30.207Z,98026.44
2023-02-16T12:47:00.813Z,98025.66
2023-02-16T12:48:37.689Z,98020.06
2023-02-16T12:50:01.911Z,98021.38
2023-02-16T12:51:30.524Z,98022.19
2023-02-16T12:52:58.955Z,98014.19
2023-02-16T12:54:26.330Z,98013.13
2023-02-16T12:55:51.930Z,98010.19
2023-02-16T12:57:15.979Z,98006.22
2023-02-16T12:58:42.267Z,98013.44
2023-02-16T13:00:18.824Z,98008.63
2023-02-16T13:01:41.205Z,98002.50
2023-02-16T13:03:17.170Z,98003.56
2023-02-16T13:04:46.985Z,98000.63
2023-02-16T13:06:18.365Z,97995.28
2023-02-16T13:07:45.172Z,97989.97
2023-02-16T13:09:19.799Z,97996.09
2023-02-16T13:10:51.853Z,97991.50
2023-02-16T13:12:24.351Z,97996.31
2023-02-16T13:13:47.924Z,97997.38
2023-02-16T13:15:15.928Z,97993.09
2023-02-16T13:16:42.790Z,97990.44
2023-02-16T13:18:09.999Z,97987.50
2023-02-16T13:19:33.324Z,97993.38
